createdAt,value
2019-04-26T00:00:10.432Z,29.23
2019-04-26T00:02:46.402Z,31.77
2019-04-26T00:05:16.469Z,35.83
2019-04-26T00:07:46.320Z,44.63
2019-04-26T00:10:25.843Z,47.30
2019-04-26T00:13:08.561Z,41.53
2019-04-26T00:15:58.025Z,47.70
2019-04-26T00:18:27.347Z,37.20
2019-04-26T00:20:56.585Z,52.63
2019-04-26T00:23:25.938Z,67.43
2019-04-26T00:25:55.378Z,74.63
2019-04-26T00:28:24.685Z,68.03
2019-04-26T00:30:54.373Z,57.87
2019-04-26T00:33:23.680Z,66.57
2019-04-26T00:35:52.908Z,61.77
2019-04-26T00:38:22.437Z,93.50
2019-04-26T00:40:52.915Z,115.50
2019-04-26T00:43:22.949Z,103.20
2019-04-26T00:45:53.986Z,126.37
2019-04-26T00:48:25.820Z,183.00
2019-04-26T00:50:56.140Z,138.97
2019-04-26T00:53:27.587Z,105.27
2019-04-26T00:55:57.821Z,69.90
2019-04-26T00:58:29.361Z,38.37
2019-04-26T01:00:59.121Z,33.60
2019-04-26T01:03:28.285Z,44.03
2019-04-26T01:06:00.113Z,56.37
2019-04-26T01:08:29.766Z,65.50
2019-04-26T01:10:59.092Z,49.23
2019-04-26T01:13:28.557Z,34.50
2019-04-26T01:15:57.887Z,25.93
2019-04-26T01:18:27.172Z,33.90
2019-04-26T01:20:58.780Z,46.13
2019-04-26T01:23:30.668Z,76.37
2019-04-26T01:26:19.282Z,71.70
2019-04-26T01:29:03.135Z,73.60
2019-04-26T01:31:35.626Z,54.93
2019-04-26T01:34:04.905Z,54.63
2019-04-26T01:36:37.111Z,69.00
2019-04-26T01:39:19.672Z,84.53
2019-04-26T01:41:59.910Z,72.00
2019-04-26T01:44:57.318Z,67.93
2019-04-26T01:47:26.933Z,59.67
2019-04-26T01:49:56.369Z,61.60
2019-04-26T01:52:25.744Z,66.00
2019-04-26T01:54:55.336Z,68.57
2019-04-26T01:57:27.598Z,49.73
2019-04-26T02:00:02.748Z,31.13
2019-04-26T02:02:42.832Z,38.03
2019-04-26T02:05:37.274Z,28.33
2019-04-26T02:08:06.519Z,36.47
2019-04-26T02:10:35.763Z,25.93
2019-04-26T02:13:05.035Z,23.33
2019-04-26T02:15:34.853Z,25.73
2019-04-26T02:18:04.355Z,27.80
2019-04-26T02:20:55.358Z,24.83
2019-04-26T02:23:30.681Z,34.60
2019-04-26T02:26:19.094Z,57.30
2019-04-26T02:28:48.879Z,63.70
2019-04-26T02:31:18.135Z,39.23
2019-04-26T02:33:47.503Z,45.60
2019-04-26T02:36:16.939Z,35.07
2019-04-26T02:38:47.287Z,29.33
2019-04-26T02:41:16.561Z,41.50
2019-04-26T02:43:48.806Z,27.57
2019-04-26T02:46:29.281Z,23.80
2019-04-26T02:49:25.207Z,37.13
2019-04-26T02:52:03.918Z,35.60
2019-04-26T02:54:46.307Z,34.37
2019-04-26T02:57:36.645Z,24.10
2019-04-26T03:00:10.534Z,27.13
2019-04-26T03:02:40.416Z,27.10
2019-04-26T03:05:10.866Z,26.00
2019-04-26T03:08:11.001Z,21.90
2019-04-26T03:11:07.825Z,30.53
2019-04-26T03:13:49.381Z,22.60
2019-04-26T03:16:28.274Z,21.33
2019-04-26T03:19:13.371Z,24.10
2019-04-26T03:21:57.012Z,22.10
2019-04-26T03:24:35.035Z,30.00
2019-04-26T03:27:35.098Z,24.23
2019-04-26T03:30:22.887Z,23.00
2019-04-26T03:33:38.605Z,23.87
2019-04-26T03:36:33.891Z,24.23
2019-04-26T03:39:24.568Z,33.27
2019-04-26T03:42:21.292Z,25.80
2019-04-26T03:45:20.257Z,28.17
2019-04-26T03:47:58.500Z,29.87
2019-04-26T03:50:39.690Z,29.70
2019-04-26T03:53:35.456Z,26.93
2019-04-26T03:57:04.204Z,30.87
2019-04-26T03:59:57.982Z,26.70
2019-04-26T04:02:53.488Z,26.90
2019-04-26T04:05:43.553Z,23.17
2019-04-26T04:08:17.034Z,26.60
2019-04-26T04:10:57.180Z,29.50
2019-04-26T04:13:50.536Z,28.17
2019-04-26T04:16:39.212Z,25.23
2019-04-26T04:19:21.971Z,24.20
2019-04-26T04:21:59.885Z,22.10
2019-04-26T04:24:39.073Z,24.10
2019-04-26T04:27:23.985Z,24.93
2019-04-26T04:30:25.455Z,23.50
2019-04-26T04:33:35.368Z,25.93
2019-04-26T04:36:16.230Z,21.30
2019-04-26T04:39:13.111Z,23.50
2019-04-26T04:42:29.097Z,26.67
2019-04-26T04:45:50.068Z,25.10
2019-04-26T04:48:32.951Z,25.43
2019-04-26T04:51:17.061Z,21.00
2019-04-26T04:54:00.417Z,23.43
2019-04-26T04:57:23.026Z,23.30
2019-04-26T05:00:07.560Z,21.73
2019-04-26T05:03:31.902Z,29.20
2019-04-26T05:06:26.682Z,23.53
2019-04-26T05:09:08.311Z,19.27
2019-04-26T05:11:51.881Z,25.93
2019-04-26T05:15:07.272Z,24.60
2019-04-26T05:18:00.018Z,21.60
2019-04-26T05:20:35.193Z,20.77
2019-04-26T05:23:48.904Z,24.53
2019-04-26T05:27:28.465Z,23.63
2019-04-26T05:30:17.954Z,24.30
2019-04-26T05:33:26.683Z,24.80
2019-04-26T05:36:06.475Z,26.80
2019-04-26T05:39:08.625Z,21.93
2019-04-26T05:42:13.818Z,20.43
2019-04-26T05:45:23.183Z,24.53
2019-04-26T05:48:19.199Z,20.37
2019-04-26T05:51:28.560Z,22.57
2019-04-26T05:54:42.981Z,20.87
2019-04-26T05:57:37.389Z,21.07
2019-04-26T06:01:12.149Z,21.60
2019-04-26T06:04:40.642Z,20.57
2019-04-26T06:07:38.251Z,20.97
2019-04-26T06:10:24.923Z,25.23
2019-04-26T06:13:46.679Z,21.70
2019-04-26T06:16:35.878Z,23.40
2019-04-26T06:19:27.275Z,21.50
2019-04-26T06:22:20.335Z,24.83
2019-04-26T06:25:26.051Z,23.37
2019-04-26T06:28:29.057Z,24.67
2019-04-26T06:31:12.212Z,22.73
2019-04-26T06:34:09.077Z,23.60
2019-04-26T06:37:12.416Z,23.53
2019-04-26T06:40:11.649Z,21.07
2019-04-26T06:43:06.147Z,22.20
2019-04-26T06:46:06.964Z,19.10
2019-04-26T06:49:08.206Z,22.52
2019-04-26T06:51:44.080Z,18.67
2019-04-26T06:54:20.737Z,25.23
2019-04-26T06:57:28.363Z,14.93
2019-04-26T07:00:10.172Z,21.00
2019-04-26T07:02:57.524Z,23.22
2019-04-26T07:05:30.127Z,21.00
2019-04-26T07:08:42.392Z,20.17
2019-04-26T07:12:08.427Z,18.77
2019-04-26T07:15:27.540Z,22.37
2019-04-26T07:18:17.406Z,25.30
2019-04-26T07:21:16.559Z,20.20
2019-04-26T07:24:25.376Z,18.12
2019-04-26T07:27:26.363Z,18.05
2019-04-26T07:30:17.393Z,16.12
2019-04-26T07:33:26.347Z,16.62
2019-04-26T07:36:31.272Z,16.90
2019-04-26T07:39:47.690Z,27.73
2019-04-26T07:43:01.705Z,20.80
2019-04-26T07:45:55.350Z,16.30
2019-04-26T07:48:53.009Z,15.80
2019-04-26T07:51:59.359Z,18.73
2019-04-26T07:55:31.092Z,24.23
2019-04-26T07:58:26.831Z,15.63
2019-04-26T08:01:14.152Z,15.48
2019-04-26T08:03:55.541Z,17.50
2019-04-26T08:06:43.105Z,17.62
2019-04-26T08:09:26.226Z,19.30
2019-04-26T08:11:53.422Z,23.27
2019-04-26T08:14:29.016Z,18.77
2019-04-26T08:17:20.639Z,18.30
2019-04-26T08:20:02.265Z,17.23
2019-04-26T08:22:34.915Z,16.87
2019-04-26T08:25:06.906Z,21.42
2019-04-26T08:27:39.984Z,16.80
2019-04-26T08:30:17.090Z,20.12
2019-04-26T08:32:52.273Z,18.40
2019-04-26T08:35:29.423Z,19.20
2019-04-26T08:38:08.019Z,13.65
2019-04-26T08:40:36.722Z,17.35
2019-04-26T08:43:33.233Z,16.50
2019-04-26T08:46:43.622Z,14.95
2019-04-26T08:49:35.076Z,14.10
2019-04-26T08:52:14.174Z,18.32
2019-04-26T08:54:45.302Z,19.00
2019-04-26T08:57:16.771Z,12.30
2019-04-26T08:59:48.366Z,15.00
2019-04-26T09:02:52.325Z,20.25
2019-04-26T09:05:49.924Z,16.55
2019-04-26T09:08:25.157Z,15.70
2019-04-26T09:10:58.601Z,15.10
2019-04-26T09:13:31.947Z,18.27
2019-04-26T09:16:12.960Z,15.90
2019-04-26T09:18:43.814Z,21.95
2019-04-26T09:21:17.013Z,13.45
2019-04-26T09:24:03.301Z,14.10
2019-04-26T09:26:55.181Z,20.12
2019-04-26T09:29:30.561Z,20.57
2019-04-26T09:32:10.068Z,13.20
2019-04-26T09:34:41.230Z,17.87
2019-04-26T09:37:11.212Z,14.20
2019-04-26T09:39:42.102Z,14.70
2019-04-26T09:42:20.569Z,15.72
2019-04-26T09:45:05.446Z,15.05
2019-04-26T09:47:44.021Z,15.60
2019-04-26T09:50:21.723Z,18.50
2019-04-26T09:52:52.019Z,17.15
2019-04-26T09:55:21.307Z,16.50
2019-04-26T09:57:53.507Z,21.70
2019-04-26T10:00:28.182Z,18.52
2019-04-26T10:02:57.498Z,17.75
2019-04-26T10:05:27.064Z,20.85
2019-04-26T10:07:56.311Z,22.67
2019-04-26T10:10:30.930Z,16.93
2019-04-26T10:13:07.222Z,18.40
2019-04-26T10:15:58.110Z,21.82
2019-04-26T10:18:25.972Z,17.55
2019-04-26T10:20:55.383Z,21.97
2019-04-26T10:23:24.630Z,19.48
2019-04-26T10:25:53.978Z,43.38
2019-04-26T10:28:23.820Z,27.90
2019-04-26T10:30:53.137Z,17.23
2019-04-26T10:33:22.522Z,16.57
2019-04-26T10:35:52.573Z,14.78
2019-04-26T10:38:23.730Z,14.78
2019-04-26T10:40:53.867Z,15.48
2019-04-26T10:43:23.220Z,21.30
2019-04-26T10:45:54.151Z,16.20
2019-04-26T10:48:24.416Z,17.10
2019-04-26T10:50:53.655Z,14.45
2019-04-26T10:53:50.333Z,24.70
2019-04-26T10:56:36.704Z,21.95
2019-04-26T10:59:28.361Z,20.85
2019-04-26T11:01:57.658Z,14.03
2019-04-26T11:04:27.005Z,16.90
2019-04-26T11:06:58.082Z,12.20
2019-04-26T11:09:27.277Z,15.95
2019-04-26T11:11:56.503Z,17.02
2019-04-26T11:14:25.822Z,20.05
2019-04-26T11:16:55.159Z,19.25
2019-04-26T11:19:24.366Z,23.67
2019-04-26T11:21:54.776Z,17.35
2019-04-26T11:24:24.666Z,16.73
2019-04-26T11:26:54.040Z,18.00
2019-04-26T11:29:25.005Z,20.23
2019-04-26T11:31:54.314Z,14.80
2019-04-26T11:34:25.052Z,14.43
2019-04-26T11:36:54.409Z,18.02
2019-04-26T11:39:23.683Z,18.98
2019-04-26T11:41:53.181Z,13.60
2019-04-26T11:44:23.400Z,17.52
2019-04-26T11:46:53.678Z,18.98
2019-04-26T11:49:22.988Z,20.48
2019-04-26T11:51:52.363Z,16.93
2019-04-26T11:54:22.244Z,19.85
2019-04-26T11:56:51.494Z,18.75
2019-04-26T11:59:20.861Z,15.55
2019-04-26T12:01:50.203Z,23.75
2019-04-26T12:04:38.509Z,18.57
2019-04-26T12:07:20.573Z,16.07
2019-04-26T12:09:51.820Z,13.80
2019-04-26T12:12:21.089Z,18.80
2019-04-26T12:14:51.119Z,18.92
2019-04-26T12:17:20.407Z,18.77
2019-04-26T12:19:52.231Z,14.55
2019-04-26T12:22:20.877Z,21.23
2019-04-26T12:24:50.235Z,19.10
2019-04-26T12:27:20.008Z,12.75
2019-04-26T12:29:49.821Z,16.20
2019-04-26T12:32:19.358Z,19.42
2019-04-26T12:34:48.705Z,18.98
2019-04-26T12:37:19.957Z,16.93
2019-04-26T12:39:49.369Z,17.40
2019-04-26T12:42:18.734Z,15.30
2019-04-26T12:45:16.776Z,16.97
2019-04-26T12:47:48.783Z,12.78
2019-04-26T12:50:18.164Z,16.12
2019-04-26T12:52:47.517Z,15.35
2019-04-26T12:55:18.447Z,15.70
2019-04-26T12:57:47.868Z,13.32
2019-04-26T13:00:22.133Z,18.65
2019-04-26T13:02:54.233Z,13.25
2019-04-26T13:05:22.438Z,12.70
2019-04-26T13:07:53.589Z,13.28
2019-04-26T13:10:53.983Z,15.23
2019-04-26T13:13:42.887Z,15.75
2019-04-26T13:16:21.737Z,16.25
2019-04-26T13:18:51.822Z,15.70
2019-04-26T13:21:21.199Z,9.33
2019-04-26T13:23:50.463Z,14.07
2019-04-26T13:26:19.976Z,14.13
2019-04-26T13:28:52.447Z,12.53
2019-04-26T13:31:21.751Z,12.95
2019-04-26T13:33:51.049Z,9.18
2019-04-26T13:36:20.343Z,10.08
2019-04-26T13:38:49.670Z,14.23
2019-04-26T13:41:18.981Z,10.25
2019-04-26T13:43:48.170Z,13.43
2019-04-26T13:46:40.991Z,10.53
2019-04-26T13:49:18.041Z,14.33
2019-04-26T13:51:46.427Z,16.27
2019-04-26T13:54:16.564Z,9.23
2019-04-26T13:56:46.750Z,11.55
2019-04-26T13:59:16.033Z,19.35
2019-04-26T14:01:45.400Z,9.15
2019-04-26T14:04:15.060Z,11.30
2019-04-26T14:06:44.369Z,17.75
2019-04-26T14:09:14.926Z,12.43
2019-04-26T14:11:44.609Z,11.12
2019-04-26T14:14:13.786Z,16.35
2019-04-26T14:16:43.307Z,7.72
2019-04-26T14:19:15.420Z,11.00
2019-04-26T14:21:43.824Z,13.22
2019-04-26T14:24:23.994Z,10.53
2019-04-26T14:26:56.644Z,14.78
2019-04-26T14:29:28.381Z,10.80
2019-04-26T14:31:57.035Z,12.43
2019-04-26T14:34:26.287Z,14.73
2019-04-26T14:37:05.912Z,16.37
2019-04-26T14:39:38.304Z,10.63
2019-04-26T14:41:58.435Z,13.05
2019-04-26T14:44:31.256Z,8.45
2019-04-26T14:46:59.007Z,12.60
2019-04-26T14:49:38.442Z,12.20
2019-04-26T14:51:59.294Z,11.50
2019-04-26T14:54:28.531Z,14.98
2019-04-26T14:56:59.819Z,21.60
2019-04-26T15:00:04.874Z,9.55
2019-04-26T15:03:04.772Z,10.28
2019-04-26T15:05:51.867Z,11.75
2019-04-26T15:08:22.592Z,10.05
2019-04-26T15:11:00.159Z,11.25
2019-04-26T15:13:23.646Z,10.98
2019-04-26T15:15:53.117Z,20.17
2019-04-26T15:18:22.599Z,12.15
2019-04-26T15:20:53.074Z,15.53
2019-04-26T15:23:23.955Z,14.05
2019-04-26T15:25:53.831Z,13.70
2019-04-26T15:28:23.487Z,10.50
2019-04-26T15:30:52.870Z,8.30
2019-04-26T15:33:22.462Z,11.40
2019-04-26T15:35:52.217Z,6.92
2019-04-26T15:38:22.565Z,10.08
2019-04-26T15:41:17.094Z,8.15
2019-04-26T15:44:06.979Z,11.88
2019-04-26T15:46:58.285Z,13.70
2019-04-26T15:49:55.519Z,11.05
2019-04-26T15:52:24.871Z,13.83
2019-04-26T15:54:58.933Z,8.10
2019-04-26T15:57:31.281Z,13.60
2019-04-26T15:59:58.098Z,10.55
2019-04-26T16:02:26.953Z,9.65
2019-04-26T16:04:56.263Z,9.75
2019-04-26T16:07:28.772Z,9.90
2019-04-26T16:09:57.573Z,7.55
2019-04-26T16:12:27.318Z,11.10
2019-04-26T16:14:56.709Z,11.78
2019-04-26T16:17:26.050Z,9.73
2019-04-26T16:19:56.048Z,7.65
2019-04-26T16:22:30.101Z,11.85
2019-04-26T16:24:58.194Z,17.32
2019-04-26T16:27:30.910Z,10.98
2019-04-26T16:30:16.890Z,10.38
2019-04-26T16:33:04.470Z,8.95
2019-04-26T16:35:34.331Z,9.83
2019-04-26T16:38:22.481Z,14.80
2019-04-26T16:40:53.507Z,40.52
2019-04-26T16:43:36.482Z,178.60
2019-04-26T16:45:54.373Z,241.93
2019-04-26T16:48:25.829Z,115.42
2019-04-26T16:50:55.419Z,80.72
2019-04-26T16:53:43.823Z,63.70
2019-04-26T16:55:55.792Z,46.00
2019-04-26T16:58:30.937Z,38.02
2019-04-26T17:01:04.562Z,20.85
2019-04-26T17:03:38.228Z,20.70
2019-04-26T17:22:00.962Z,24.67
2019-04-26T17:29:06.599Z,19.42
2019-04-26T17:31:47.185Z,16.10
2019-04-26T17:43:27.741Z,15.20
2019-04-26T18:25:32.871Z,21.85
2019-04-26T18:28:04.494Z,18.23
2019-04-26T18:30:33.591Z,20.70
2019-04-26T18:33:03.079Z,15.60
2019-04-26T18:35:33.771Z,18.37
2019-04-26T18:38:03.721Z,18.12
2019-04-26T18:40:56.123Z,13.90
2019-04-26T18:43:04.235Z,19.48
2019-04-26T18:45:33.482Z,23.10
2019-04-26T18:48:04.689Z,24.05
2019-04-26T18:50:36.534Z,25.52
2019-04-26T18:53:36.963Z,25.60
2019-04-26T18:56:05.022Z,22.20
2019-04-26T18:58:37.970Z,23.75
2019-04-26T19:01:09.480Z,28.05
2019-04-26T19:03:41.011Z,31.73
2019-04-26T19:06:10.273Z,29.32
2019-04-26T19:08:47.716Z,27.27
2019-04-26T19:11:11.704Z,36.40
2019-04-26T19:13:59.316Z,37.70
2019-04-26T19:16:46.430Z,46.83
2019-04-26T19:19:26.039Z,39.55
2019-04-26T19:22:01.493Z,51.05
2019-04-26T19:24:30.502Z,62.50
2019-04-26T19:26:59.863Z,56.58
2019-04-26T19:29:33.720Z,49.23
2019-04-26T19:32:02.868Z,51.92
2019-04-26T19:34:31.365Z,48.38
2019-04-26T19:37:03.128Z,51.50
2019-04-26T19:39:35.163Z,61.50
2019-04-26T19:42:05.917Z,53.30
2019-04-26T19:44:34.101Z,36.13
2019-04-26T19:47:20.152Z,32.08
2019-04-26T19:50:09.752Z,30.72
2019-04-26T19:52:45.043Z,23.97
2019-04-26T19:55:36.354Z,26.90
2019-04-26T19:58:09.631Z,24.37
2019-04-26T20:00:43.407Z,24.65
2019-04-26T20:03:15.153Z,23.25
2019-04-26T20:05:44.204Z,20.95
2019-04-26T20:08:12.111Z,19.87
2019-04-26T20:10:45.369Z,20.62
2019-04-26T20:13:15.193Z,24.23
2019-04-26T20:15:43.886Z,20.60
2019-04-26T20:18:13.243Z,28.65
2019-04-26T20:20:42.508Z,22.13
2019-04-26T20:23:12.961Z,26.55
2019-04-26T20:25:42.206Z,26.00
2019-04-26T20:28:12.131Z,30.97
2019-04-26T20:31:05.959Z,28.52
2019-04-26T20:33:34.853Z,27.37
2019-04-26T20:36:04.785Z,23.63
2019-04-26T20:38:42.558Z,27.40
2019-04-26T20:41:05.762Z,24.85
2019-04-26T20:43:36.807Z,29.30
2019-04-26T20:46:14.472Z,28.03
2019-04-26T20:48:38.142Z,29.30
2019-04-26T20:51:10.906Z,30.23
2019-04-26T20:53:41.371Z,29.85
2019-04-26T20:56:16.207Z,26.57
2019-04-26T20:58:43.226Z,23.80
2019-04-26T21:01:14.083Z,25.77
2019-04-26T21:03:45.935Z,25.97
2019-04-26T21:06:14.854Z,24.37
2019-04-26T21:08:44.163Z,22.83
2019-04-26T21:11:13.934Z,32.63
2019-04-26T21:13:43.319Z,29.03
2019-04-26T21:16:15.393Z,24.63
2019-04-26T21:18:45.146Z,23.37
2019-04-26T21:21:16.167Z,27.20
2019-04-26T21:23:48.226Z,22.90
2019-04-26T21:26:39.590Z,24.03
2019-04-26T21:29:20.275Z,22.17
2019-04-26T21:32:06.850Z,21.33
2019-04-26T21:34:38.086Z,29.30
2019-04-26T21:37:20.469Z,20.67
2019-04-26T21:39:58.304Z,25.00
2019-04-26T21:42:27.625Z,16.87
2019-04-26T21:44:56.978Z,22.87
2019-04-26T21:47:27.635Z,19.63
2019-04-26T21:49:59.084Z,23.40
2019-04-26T21:52:29.389Z,21.53
2019-04-26T21:54:58.904Z,25.70
2019-04-26T21:57:28.401Z,14.23
2019-04-26T21:59:57.743Z,29.53
2019-04-26T22:02:29.750Z,17.63
2019-04-26T22:04:58.049Z,19.70
2019-04-26T22:07:27.354Z,20.97
2019-04-26T22:10:09.358Z,20.80
2019-04-26T22:12:36.421Z,20.10
2019-04-26T22:15:29.448Z,25.30
2019-04-26T22:18:00.648Z,25.77
2019-04-26T22:20:44.783Z,23.70
2019-04-26T22:23:43.660Z,27.13
2019-04-26T22:26:13.693Z,23.70
2019-04-26T22:28:44.245Z,25.50
2019-04-26T22:31:13.609Z,25.13
2019-04-26T22:33:44.532Z,29.67
2019-04-26T22:36:13.978Z,29.40
2019-04-26T22:38:43.307Z,26.82
2019-04-26T22:41:13.473Z,26.83
2019-04-26T22:44:03.772Z,30.17
2019-04-26T22:46:48.843Z,30.70
2019-04-26T22:49:16.214Z,29.03
2019-04-26T22:51:45.455Z,27.77
2019-04-26T22:54:14.708Z,26.93
2019-04-26T22:56:45.969Z,29.17
2019-04-26T22:59:14.942Z,24.57
2019-04-26T23:01:48.502Z,32.03
2019-04-26T23:04:16.370Z,26.73
2019-04-26T23:06:48.042Z,27.17
2019-04-26T23:09:20.532Z,23.40
2019-04-26T23:11:53.978Z,28.27
2019-04-26T23:14:43.762Z,27.80
2019-04-26T23:17:31.339Z,34.70
2019-04-26T23:20:29.233Z,30.23
2019-04-26T23:23:00.504Z,23.17
2019-04-26T23:25:31.141Z,26.90
2019-04-26T23:28:00.188Z,31.47
2019-04-26T23:30:31.731Z,26.73
2019-04-26T23:33:00.457Z,33.47
2019-04-26T23:35:29.808Z,33.53
2019-04-26T23:38:00.861Z,27.73
2019-04-26T23:40:30.175Z,26.50
2019-04-26T23:42:59.850Z,31.37
2019-04-26T23:45:29.171Z,29.33
2019-04-26T23:47:58.485Z,34.83
2019-04-26T23:50:29.486Z,31.53
2019-04-26T23:52:58.835Z,31.83
2019-04-26T23:55:27.989Z,30.60
2019-04-26T23:57:57.256Z,36.60
